createdAt,value
2018-12-02T00:00:17.844Z,42.50
2018-12-02T00:02:45.952Z,42.40
2018-12-02T00:05:14.092Z,42.20
2018-12-02T00:07:42.201Z,42.10
2018-12-02T00:10:12.322Z,42.00
2018-12-02T00:12:40.463Z,41.80
2018-12-02T00:15:12.032Z,41.70
2018-12-02T00:17:40.255Z,41.60
2018-12-02T00:20:10.908Z,41.50
2018-12-02T00:22:39.267Z,41.40
2018-12-02T00:25:13.028Z,41.20
2018-12-02T00:27:42.946Z,41.20
2018-12-02T00:30:12.419Z,40.90
2018-12-02T00:32:40.534Z,41.20
2018-12-02T00:35:10.009Z,40.80
2018-12-02T00:37:38.369Z,40.60
2018-12-02T00:40:09.055Z,40.50
2018-12-02T00:42:37.310Z,40.30
2018-12-02T00:45:22.802Z,40.20
2018-12-02T00:47:50.919Z,40.00
2018-12-02T00:50:19.378Z,39.90
2018-12-02T00:52:49.784Z,39.70
2018-12-02T00:55:22.247Z,39.70
2018-12-02T00:57:50.419Z,39.50
2018-12-02T01:00:18.504Z,39.40
2018-12-02T01:02:47.688Z,39.20
2018-12-02T01:05:17.911Z,39.00
2018-12-02T01:07:46.043Z,38.90
2018-12-02T01:10:16.164Z,38.90
2018-12-02T01:12:44.559Z,38.60
2018-12-02T01:15:14.807Z,38.80
2018-12-02T01:17:42.900Z,38.40
2018-12-02T01:20:15.053Z,38.20
2018-12-02T01:22:43.230Z,38.10
2018-12-02T01:25:12.204Z,38.00
2018-12-02T01:27:40.397Z,37.90
2018-12-02T01:30:12.565Z,37.60
2018-12-02T01:32:40.818Z,37.60
2018-12-02T01:35:09.364Z,37.50
2018-12-02T01:37:37.452Z,37.40
2018-12-02T01:40:07.614Z,37.30
2018-12-02T01:42:35.728Z,37.40
2018-12-02T01:45:04.227Z,37.10
2018-12-02T01:47:32.327Z,37.00
2018-12-02T01:50:00.467Z,36.70
2018-12-02T01:52:28.567Z,36.60
2018-12-02T01:54:56.639Z,36.50
2018-12-02T01:57:24.825Z,36.30
2018-12-02T01:59:52.963Z,36.30
2018-12-02T02:02:21.059Z,36.00
2018-12-02T02:04:49.171Z,36.00
2018-12-02T02:07:17.292Z,35.80
2018-12-02T02:09:45.456Z,35.70
2018-12-02T02:12:13.547Z,35.60
2018-12-02T02:14:41.695Z,35.30
2018-12-02T02:17:09.811Z,35.20
2018-12-02T02:19:37.899Z,35.10
2018-12-02T02:22:06.080Z,34.80
2018-12-02T02:24:34.170Z,34.80
2018-12-02T02:27:02.259Z,34.70
2018-12-02T02:29:30.376Z,34.60
2018-12-02T02:31:58.472Z,34.30
2018-12-02T02:34:26.575Z,34.10
2018-12-02T02:36:54.772Z,33.90
2018-12-02T02:39:22.862Z,34.10
2018-12-02T02:41:50.978Z,33.90
2018-12-02T02:44:19.091Z,33.90
2018-12-02T02:46:47.384Z,33.90
2018-12-02T02:49:15.472Z,33.60
2018-12-02T02:51:43.659Z,33.60
2018-12-02T02:54:11.777Z,33.50
2018-12-02T02:56:39.895Z,33.30
2018-12-02T02:59:08.032Z,33.20
2018-12-02T03:01:36.214Z,33.00
2018-12-02T03:04:04.308Z,33.00
2018-12-02T03:06:32.416Z,32.80
2018-12-02T03:09:00.517Z,32.80
2018-12-02T03:11:28.592Z,32.80
2018-12-02T03:13:56.687Z,32.80
2018-12-02T03:16:24.767Z,32.80
2018-12-02T03:18:53.024Z,32.70
2018-12-02T03:21:21.095Z,32.60
2018-12-02T03:23:49.302Z,32.60
2018-12-02T03:26:17.396Z,32.70
2018-12-02T03:28:45.511Z,32.60
2018-12-02T03:31:13.676Z,32.60
2018-12-02T03:33:42.036Z,32.60
2018-12-02T03:36:10.135Z,32.50
2018-12-02T03:38:38.273Z,32.60
2018-12-02T03:41:06.380Z,33.10
2018-12-02T03:43:34.563Z,32.50
2018-12-02T03:46:02.669Z,32.30
2018-12-02T03:48:30.760Z,32.40
2018-12-02T03:50:59.016Z,32.40
2018-12-02T03:53:27.176Z,32.30
2018-12-02T03:55:55.289Z,32.40
2018-12-02T03:58:23.397Z,32.40
2018-12-02T04:00:54.201Z,32.50
2018-12-02T04:03:22.300Z,32.60
2018-12-02T04:05:50.422Z,32.60
2018-12-02T04:08:18.522Z,32.60
2018-12-02T04:10:46.640Z,32.60
2018-12-02T04:13:14.752Z,32.60
2018-12-02T04:15:42.849Z,32.70
2018-12-02T04:18:11.062Z,32.70
2018-12-02T04:20:39.167Z,32.80
2018-12-02T04:23:07.279Z,32.80
2018-12-02T04:25:35.383Z,32.80
2018-12-02T04:28:03.823Z,33.10
2018-12-02T04:30:31.904Z,32.90
2018-12-02T04:33:00.043Z,32.80
2018-12-02T04:35:28.157Z,32.90
2018-12-02T04:37:56.276Z,32.80
2018-12-02T04:40:24.413Z,32.90
2018-12-02T04:42:52.520Z,33.00
2018-12-02T04:45:20.717Z,33.10
2018-12-02T04:47:49.156Z,33.10
2018-12-02T04:50:18.271Z,33.10
2018-12-02T04:52:46.382Z,33.10
2018-12-02T04:55:14.523Z,33.10
2018-12-02T04:57:42.624Z,33.20
2018-12-02T05:00:12.616Z,33.30
2018-12-02T05:02:41.020Z,33.20
2018-12-02T05:05:10.483Z,33.30
2018-12-02T05:07:39.008Z,33.30
2018-12-02T05:10:13.102Z,33.20
2018-12-02T05:12:41.491Z,33.20
2018-12-02T05:15:10.551Z,33.30
2018-12-02T05:17:38.728Z,33.40
2018-12-02T05:20:09.539Z,33.30
2018-12-02T05:22:37.667Z,33.30
2018-12-02T05:25:06.829Z,33.40
2018-12-02T05:27:34.936Z,33.40
2018-12-02T05:30:03.043Z,33.50
2018-12-02T05:32:31.154Z,33.40
2018-12-02T05:34:59.239Z,33.50
2018-12-02T05:37:27.351Z,33.50
2018-12-02T05:39:55.575Z,33.60
2018-12-02T05:42:29.122Z,33.70
2018-12-02T05:44:57.214Z,33.60
2018-12-02T05:47:25.323Z,33.50
2018-12-02T05:49:53.437Z,33.50
2018-12-02T05:52:21.617Z,33.50
2018-12-02T05:54:49.730Z,33.50
2018-12-02T05:57:17.840Z,33.40
2018-12-02T05:59:46.011Z,33.40
2018-12-02T06:02:14.100Z,33.40
2018-12-02T06:04:42.227Z,33.50
2018-12-02T06:07:10.326Z,33.60
2018-12-02T06:09:38.419Z,33.50
2018-12-02T06:12:06.563Z,33.50
2018-12-02T06:14:34.655Z,33.60
2018-12-02T06:17:02.932Z,33.70
2018-12-02T06:19:30.987Z,33.80
2018-12-02T06:21:59.131Z,33.90
2018-12-02T06:24:27.399Z,33.90
2018-12-02T06:26:55.487Z,33.80
2018-12-02T06:29:23.632Z,33.80
2018-12-02T06:31:51.696Z,33.80
2018-12-02T06:34:19.846Z,33.90
2018-12-02T06:36:48.027Z,33.90
2018-12-02T06:39:16.171Z,33.90
2018-12-02T06:41:44.269Z,34.00
2018-12-02T06:44:12.358Z,33.90
2018-12-02T06:46:40.455Z,33.90
2018-12-02T06:49:08.535Z,34.50
2018-12-02T06:51:36.651Z,33.90
2018-12-02T06:54:04.775Z,34.00
2018-12-02T06:56:34.011Z,34.00
2018-12-02T06:59:10.154Z,34.00
2018-12-02T07:01:48.279Z,34.00
2018-12-02T07:04:22.876Z,34.00
2018-12-02T07:06:50.987Z,34.10
2018-12-02T07:09:19.165Z,34.80
2018-12-02T07:11:47.340Z,34.30
2018-12-02T07:14:15.841Z,34.30
2018-12-02T07:16:43.944Z,34.30
2018-12-02T07:19:15.111Z,34.40
2018-12-02T07:21:43.384Z,34.40
2018-12-02T07:24:12.087Z,34.50
2018-12-02T07:26:40.174Z,34.50
2018-12-02T07:29:08.291Z,34.50
2018-12-02T07:31:36.519Z,34.50
2018-12-02T07:34:04.975Z,34.60
2018-12-02T07:36:33.115Z,34.60
2018-12-02T07:41:16.406Z,34.60
2018-12-02T07:43:44.490Z,34.70
2018-12-02T07:46:12.594Z,34.90
2018-12-02T07:48:40.707Z,34.90
2018-12-02T07:51:09.431Z,35.00
2018-12-02T07:53:37.644Z,35.00
2018-12-02T07:56:05.746Z,35.10
2018-12-02T07:58:33.827Z,35.10
2018-12-02T08:01:01.947Z,35.00
2018-12-02T08:03:30.123Z,35.10
2018-12-02T08:05:58.235Z,35.20
2018-12-02T08:08:26.323Z,35.20
2018-12-02T08:10:54.438Z,35.30
2018-12-02T08:13:22.512Z,35.30
2018-12-02T08:15:50.616Z,35.40
2018-12-02T08:18:18.733Z,35.40
2018-12-02T08:20:46.875Z,35.50
2018-12-02T08:23:15.022Z,35.80
2018-12-02T08:25:43.131Z,35.70
2018-12-02T08:28:11.243Z,35.80
2018-12-02T08:30:39.419Z,35.80
2018-12-02T08:33:08.765Z,35.80
2018-12-02T08:35:35.791Z,35.90
2018-12-02T08:38:08.814Z,36.00
2018-12-02T08:40:36.965Z,36.10
2018-12-02T08:43:06.733Z,36.30
2018-12-02T08:45:34.877Z,36.40
2018-12-02T08:48:02.959Z,36.50
2018-12-02T08:50:31.203Z,36.30
2018-12-02T08:52:59.291Z,37.00
2018-12-02T08:55:27.387Z,36.40
2018-12-02T08:57:55.528Z,36.90
2018-12-02T09:00:23.751Z,36.40
2018-12-02T09:02:55.239Z,36.40
2018-12-02T09:05:23.337Z,36.50
2018-12-02T09:07:51.879Z,37.10
2018-12-02T09:10:24.075Z,36.70
2018-12-02T09:12:56.434Z,36.90
2018-12-02T09:15:24.627Z,36.80
2018-12-02T09:17:52.727Z,36.70
2018-12-02T09:20:24.924Z,36.60
2018-12-02T09:22:53.026Z,36.30
2018-12-02T09:25:21.128Z,36.50
2018-12-02T09:27:49.590Z,36.40
2018-12-02T09:30:19.051Z,36.40
2018-12-02T09:32:47.212Z,36.60
2018-12-02T09:35:15.751Z,37.40
2018-12-02T09:37:43.871Z,37.30
2018-12-02T09:40:15.837Z,36.90
2018-12-02T09:42:48.048Z,37.70
2018-12-02T09:45:18.361Z,38.00
2018-12-02T09:47:46.483Z,37.40
2018-12-02T09:50:15.043Z,38.00
2018-12-02T09:52:43.200Z,38.20
2018-12-02T09:55:13.559Z,37.90
2018-12-02T09:57:41.631Z,38.20
2018-12-02T10:00:13.155Z,37.40
2018-12-02T10:02:41.294Z,38.00
2018-12-02T10:05:09.551Z,37.90
2018-12-02T10:07:37.695Z,38.20
2018-12-02T10:10:22.465Z,38.60
2018-12-02T10:12:54.380Z,39.10
2018-12-02T10:15:22.484Z,39.00
2018-12-02T10:17:50.600Z,39.80
2018-12-02T10:20:19.501Z,39.50
2018-12-02T10:22:47.871Z,39.40
2018-12-02T10:25:17.798Z,39.90
2018-12-02T10:27:46.020Z,39.50
2018-12-02T10:30:19.217Z,40.30
2018-12-02T10:32:47.604Z,40.00
2018-12-02T10:35:15.696Z,39.70
2018-12-02T10:37:43.783Z,40.00
2018-12-02T10:40:13.895Z,39.70
2018-12-02T10:42:42.155Z,39.70
2018-12-02T10:45:12.536Z,39.80
2018-12-02T10:47:40.800Z,40.10
2018-12-02T10:50:20.340Z,40.00
2018-12-02T10:52:49.005Z,39.90
2018-12-02T10:55:32.619Z,40.20
2018-12-02T10:58:02.440Z,40.20
2018-12-02T11:00:36.499Z,40.90
2018-12-02T11:03:04.719Z,40.70
2018-12-02T11:05:32.888Z,41.40
2018-12-02T11:08:00.983Z,40.60
2018-12-02T11:10:29.422Z,40.70
2018-12-02T11:12:57.700Z,40.70
2018-12-02T11:15:25.899Z,41.30
2018-12-02T11:17:54.235Z,41.20
2018-12-02T11:20:22.398Z,41.10
2018-12-02T11:22:52.869Z,40.80
2018-12-02T11:25:21.044Z,40.50
2018-12-02T11:27:49.169Z,40.60
2018-12-02T11:30:17.726Z,40.50
2018-12-02T11:32:46.904Z,40.80
2018-12-02T11:35:18.887Z,39.50
2018-12-02T11:37:47.673Z,39.50
2018-12-02T11:40:17.017Z,39.40
2018-12-02T11:42:45.220Z,39.20
2018-12-02T11:45:14.151Z,39.10
2018-12-02T11:47:43.526Z,39.20
2018-12-02T11:50:14.989Z,39.10
2018-12-02T11:52:43.316Z,39.00
2018-12-02T11:55:13.240Z,38.50
2018-12-02T11:57:41.359Z,39.10
2018-12-02T12:00:14.648Z,38.60
2018-12-02T12:02:42.830Z,38.80
2018-12-02T12:05:11.443Z,39.00
2018-12-02T12:07:40.188Z,38.60
2018-12-02T12:10:11.072Z,38.20
2018-12-02T12:12:39.287Z,37.80
2018-12-02T12:15:11.424Z,37.50
2018-12-02T12:17:39.616Z,37.10
2018-12-02T12:20:11.785Z,36.50
2018-12-02T12:22:40.179Z,36.70
2018-12-02T12:25:10.263Z,36.60
2018-12-02T12:27:38.806Z,36.70
2018-12-02T12:30:14.355Z,36.40
2018-12-02T12:32:42.531Z,36.40
2018-12-02T12:35:12.956Z,36.30
2018-12-02T12:37:41.103Z,36.30
2018-12-02T12:40:18.255Z,36.20
2018-12-02T12:42:48.140Z,36.20
2018-12-02T12:45:17.139Z,36.20
2018-12-02T12:47:46.483Z,36.50
2018-12-02T12:50:15.683Z,36.10
2018-12-02T12:52:43.852Z,36.30
2018-12-02T12:55:13.035Z,35.80
2018-12-02T12:57:41.175Z,35.90
2018-12-02T13:00:14.436Z,35.80
2018-12-02T13:02:42.625Z,36.10
2018-12-02T13:05:12.119Z,35.50
2018-12-02T13:07:40.379Z,35.00
2018-12-02T13:10:10.256Z,34.50
2018-12-02T13:12:38.473Z,34.70
2018-12-02T13:15:10.824Z,34.30
2018-12-02T13:17:39.156Z,34.70
2018-12-02T13:20:16.286Z,34.80
2018-12-02T13:22:44.416Z,34.90
2018-12-02T13:25:13.404Z,35.40
2018-12-02T13:27:42.220Z,36.30
2018-12-02T13:30:15.312Z,37.00
2018-12-02T13:32:44.235Z,37.00
2018-12-02T13:35:13.169Z,37.50
2018-12-02T13:37:41.432Z,38.10
2018-12-02T13:40:12.529Z,37.90
2018-12-02T13:42:40.846Z,38.40
2018-12-02T13:45:11.014Z,38.30
2018-12-02T13:47:40.976Z,39.90
2018-12-02T13:50:13.298Z,38.80
2018-12-02T13:52:41.491Z,39.80
2018-12-02T13:55:11.109Z,40.40
2018-12-02T13:57:39.480Z,41.10
2018-12-02T14:00:12.055Z,41.00
2018-12-02T14:02:40.231Z,41.10
2018-12-02T14:05:09.592Z,41.30
2018-12-02T14:07:38.053Z,42.00
2018-12-02T14:10:15.390Z,42.50
2018-12-02T14:12:48.147Z,42.90
2018-12-02T14:17:48.073Z,43.60
2018-12-02T14:20:16.266Z,44.20
2018-12-02T14:22:44.408Z,45.80
2018-12-02T14:25:14.173Z,45.60
2018-12-02T14:27:44.508Z,45.90
2018-12-02T14:30:14.705Z,46.60
2018-12-02T14:32:42.841Z,46.90
2018-12-02T14:35:10.960Z,46.80
2018-12-02T14:37:40.464Z,46.80
2018-12-02T14:40:11.041Z,47.10
2018-12-02T14:42:40.100Z,46.90
2018-12-02T14:45:12.356Z,47.10
2018-12-02T14:47:40.632Z,47.10
2018-12-02T14:50:11.220Z,47.00
2018-12-02T14:52:39.432Z,47.40
2018-12-02T14:55:10.313Z,47.40
2018-12-02T14:57:39.012Z,48.00
2018-12-02T15:00:15.534Z,47.70
2018-12-02T15:02:43.740Z,47.90
2018-12-02T15:05:12.804Z,48.30
2018-12-02T15:07:44.533Z,48.20
2018-12-02T15:10:16.655Z,48.30
2018-12-02T15:12:45.649Z,49.10
2018-12-02T15:15:16.239Z,48.40
2018-12-02T15:17:45.549Z,48.50
2018-12-02T15:20:14.960Z,48.80
2018-12-02T15:22:43.163Z,49.00
2018-12-02T15:25:12.958Z,48.90
2018-12-02T15:27:41.843Z,49.40
2018-12-02T15:30:15.734Z,49.60
2018-12-02T15:32:45.482Z,49.80
2018-12-02T15:35:13.837Z,49.90
2018-12-02T15:37:41.954Z,50.20
2018-12-02T15:40:11.637Z,50.30
2018-12-02T15:42:42.052Z,49.60
2018-12-02T15:45:11.564Z,49.90
2018-12-02T15:47:40.216Z,50.00
2018-12-02T15:50:25.662Z,49.80
2018-12-02T15:52:53.842Z,50.60
2018-12-02T15:55:23.744Z,50.10
2018-12-02T15:57:51.917Z,50.00
2018-12-02T16:00:37.280Z,50.50
2018-12-02T16:03:05.766Z,50.80
2018-12-02T16:05:33.932Z,50.90
2018-12-02T16:08:02.136Z,50.70
2018-12-02T16:10:30.824Z,51.20
2018-12-02T16:12:59.037Z,50.90
2018-12-02T16:15:29.018Z,50.50
2018-12-02T16:17:57.661Z,50.70
2018-12-02T16:20:57.024Z,50.90
2018-12-02T16:23:26.894Z,50.80
2018-12-02T16:25:55.339Z,50.70
2018-12-02T16:28:23.745Z,50.90
2018-12-02T16:30:53.873Z,50.50
2018-12-02T16:33:23.363Z,50.20
2018-12-02T16:35:52.107Z,50.70
2018-12-02T16:38:21.002Z,50.70
2018-12-02T16:40:50.292Z,50.40
2018-12-02T16:43:19.592Z,50.80
2018-12-02T16:45:47.788Z,50.70
2018-12-02T16:48:16.294Z,48.00
2018-12-02T16:50:45.780Z,46.60
2018-12-02T16:53:23.140Z,48.20
2018-12-02T16:55:54.831Z,48.60
2018-12-02T16:58:28.871Z,48.80
2018-12-02T17:01:07.072Z,49.60
2018-12-02T17:03:35.379Z,48.30
2018-12-02T17:06:03.835Z,48.70
2018-12-02T17:08:32.053Z,48.30
2018-12-02T17:11:01.020Z,49.60
2018-12-02T17:13:29.712Z,48.80
2018-12-02T17:15:58.295Z,49.60
2018-12-02T17:18:26.620Z,49.20
2018-12-02T17:20:56.258Z,49.00
2018-12-02T17:23:25.000Z,49.40
2018-12-02T17:25:53.222Z,49.00
2018-12-02T17:28:21.451Z,48.80
2018-12-02T17:30:58.925Z,47.90
2018-12-02T17:33:27.203Z,48.50
2018-12-02T17:35:55.330Z,48.70
2018-12-02T17:38:24.777Z,49.00
2018-12-02T17:40:54.598Z,49.00
2018-12-02T17:43:22.765Z,49.50
2018-12-02T17:45:51.448Z,49.00
2018-12-02T17:48:19.570Z,49.20
2018-12-02T17:50:47.708Z,48.60
2018-12-02T17:53:15.879Z,49.20
2018-12-02T17:55:44.008Z,49.30
2018-12-02T17:58:12.140Z,49.00
2018-12-02T18:00:40.248Z,48.70
2018-12-02T18:03:10.059Z,48.70
2018-12-02T18:05:40.430Z,49.10
2018-12-02T18:08:08.518Z,49.10
2018-12-02T18:10:36.613Z,49.10
2018-12-02T18:13:05.491Z,49.30
2018-12-02T18:15:33.945Z,49.20
2018-12-02T18:18:02.303Z,49.00
2018-12-02T18:20:30.459Z,49.10
2018-12-02T18:22:58.711Z,49.30
2018-12-02T18:25:27.009Z,49.30
2018-12-02T18:27:55.128Z,49.30
2018-12-02T18:30:24.443Z,49.30
2018-12-02T18:32:53.833Z,49.10
2018-12-02T18:35:27.590Z,49.20
2018-12-02T18:37:58.079Z,49.20
2018-12-02T18:40:26.279Z,49.00
2018-12-02T18:42:54.599Z,49.30
2018-12-02T18:45:22.816Z,49.00
2018-12-02T18:47:50.953Z,49.10
2018-12-02T18:50:19.128Z,48.60
2018-12-02T18:52:47.308Z,49.20
2018-12-02T18:55:15.421Z,49.40
2018-12-02T18:57:43.532Z,49.30
2018-12-02T19:00:20.517Z,49.20
2018-12-02T19:02:51.113Z,49.30
2018-12-02T19:05:20.554Z,49.00
2018-12-02T19:07:48.720Z,49.10
2018-12-02T19:10:19.592Z,49.20
2018-12-02T19:12:47.752Z,49.30
2018-12-02T19:15:16.172Z,49.30
2018-12-02T19:17:44.941Z,49.20
2018-12-02T19:20:14.761Z,49.30
2018-12-02T19:22:42.932Z,49.30
2018-12-02T19:25:13.636Z,49.60
2018-12-02T19:27:42.317Z,49.20
2018-12-02T19:30:13.189Z,49.30
2018-12-02T19:32:41.310Z,49.30
2018-12-02T19:35:12.083Z,49.20
2018-12-02T19:37:40.436Z,49.20
2018-12-02T19:40:15.251Z,49.10
2018-12-02T19:42:43.440Z,49.20
2018-12-02T19:45:14.110Z,49.20
2018-12-02T19:47:42.267Z,49.20
2018-12-02T19:50:12.483Z,49.20
2018-12-02T19:52:40.626Z,49.10
2018-12-02T19:55:10.040Z,49.10
2018-12-02T19:57:38.123Z,49.10
2018-12-02T20:00:19.595Z,49.10
2018-12-02T20:02:47.792Z,49.10
2018-12-02T20:05:16.091Z,49.10
2018-12-02T20:07:45.404Z,49.10
2018-12-02T20:10:16.160Z,49.30
2018-12-02T20:12:44.275Z,49.00
2018-12-02T20:15:13.551Z,48.80
2018-12-02T20:17:41.664Z,49.00
2018-12-02T20:20:17.939Z,49.00
2018-12-02T20:22:46.289Z,49.00
2018-12-02T20:25:15.013Z,48.90
2018-12-02T20:27:43.115Z,48.70
2018-12-02T20:30:13.619Z,48.80
2018-12-02T20:32:41.722Z,48.80
2018-12-02T20:35:10.543Z,48.80
2018-12-02T20:37:39.058Z,48.80
2018-12-02T20:40:13.819Z,48.90
2018-12-02T20:42:41.935Z,49.20
2018-12-02T20:45:11.307Z,49.00
2018-12-02T20:47:39.420Z,49.00
2018-12-02T20:50:09.907Z,49.10
2018-12-02T20:52:38.119Z,49.10
2018-12-02T20:55:11.368Z,49.30
2018-12-02T20:57:39.532Z,50.00
2018-12-02T21:00:12.676Z,49.40
2018-12-02T21:02:41.198Z,49.50
2018-12-02T21:05:26.119Z,49.50
2018-12-02T21:07:54.253Z,49.50
2018-12-02T21:10:22.356Z,49.60
2018-12-02T21:12:50.452Z,49.70
2018-12-02T21:15:18.579Z,49.90
2018-12-02T21:17:46.772Z,50.00
2018-12-02T21:20:14.891Z,50.20
2018-12-02T21:22:43.068Z,50.40
2018-12-02T21:25:30.291Z,50.50
2018-12-02T21:27:58.413Z,50.70
2018-12-02T21:30:27.874Z,50.90
2018-12-02T21:32:55.999Z,51.00
2018-12-02T21:35:24.163Z,51.20
2018-12-02T21:37:53.856Z,51.40
2018-12-02T21:40:22.027Z,51.70
2018-12-02T21:42:50.175Z,51.60
2018-12-02T21:45:18.339Z,51.80
2018-12-02T21:47:49.619Z,51.70
2018-12-02T21:50:20.926Z,52.00
2018-12-02T21:52:49.055Z,51.90
2018-12-02T21:55:17.307Z,52.10
2018-12-02T21:57:45.464Z,52.00
2018-12-02T22:00:19.975Z,52.20
2018-12-02T22:02:48.511Z,52.20
2018-12-02T22:05:16.683Z,52.10
2018-12-02T22:07:44.822Z,52.10
2018-12-02T22:10:23.067Z,51.90
2018-12-02T22:12:51.189Z,52.20
2018-12-02T22:15:19.575Z,52.00
2018-12-02T22:17:47.686Z,52.00
2018-12-02T22:20:16.682Z,51.90
2018-12-02T22:22:44.811Z,51.80
2018-12-02T22:25:14.970Z,51.70
2018-12-02T22:27:44.307Z,51.70
2018-12-02T22:30:14.351Z,51.50
2018-12-02T22:32:42.465Z,51.50
2018-12-02T22:35:11.557Z,51.40
2018-12-02T22:37:39.643Z,51.40
2018-12-02T22:40:24.671Z,51.10
2018-12-02T22:42:53.800Z,50.90
2018-12-02T22:45:23.963Z,50.80
2018-12-02T22:47:52.096Z,50.80
2018-12-02T22:50:21.395Z,50.50
2018-12-02T22:52:51.727Z,50.50
2018-12-02T22:55:19.947Z,50.50
2018-12-02T22:57:48.081Z,50.20
2018-12-02T23:00:42.516Z,50.00
2018-12-02T23:03:14.816Z,49.90
2018-12-02T23:05:43.901Z,49.70
2018-12-02T23:08:12.217Z,49.40
2018-12-02T23:10:40.343Z,49.40
2018-12-02T23:13:09.247Z,49.20
2018-12-02T23:15:38.145Z,49.10
2018-12-02T23:18:07.407Z,48.90
2018-12-02T23:20:35.546Z,48.70
2018-12-02T23:23:03.777Z,47.80
2018-12-02T23:25:31.877Z,48.40
2018-12-02T23:27:59.961Z,48.20
2018-12-02T23:30:28.412Z,47.90
2018-12-02T23:32:56.602Z,47.90
2018-12-02T23:35:24.731Z,47.70
2018-12-02T23:37:52.840Z,47.70
2018-12-02T23:40:22.500Z,48.00
2018-12-02T23:42:50.603Z,47.20
2018-12-02T23:45:18.854Z,47.00
2018-12-02T23:47:47.037Z,47.00
2018-12-02T23:50:17.055Z,47.00
2018-12-02T23:52:45.317Z,46.40
2018-12-02T23:55:14.505Z,46.50
2018-12-02T23:57:42.635Z,46.30
